sensor_id;sensor_type;location;lat;lon;timestamp;pressure;altitude;pressure_sealevel;temperature;humidity
5146;BME280;2591;48.144;15.152;2022-10-16T00:01:38;75442.19;;;-144.65;100.00
5146;BME280;2591;48.144;15.152;2022-10-16T00:04:06;75446.25;;;-144.65;100.00
5146;BME280;2591;48.144;15.152;2022-10-16T00:06:35;75444.22;;;-144.65;100.00
5146;BME280;2591;48.144;15.152;2022-10-16T00:09:03;75452.38;;;-144.65;100.00
5146;BME280;2591;48.144;15.152;2022-10-16T00:11:33;75450.34;;;-144.65;100.00
5146;BME280;2591;48.144;15.152;2022-10-16T00:14:06;75450.34;;;-144.65;100.00
5146;BME280;2591;48.144;15.152;2022-10-16T00:16:34;75450.34;;;-144.65;100.00
5146;BME280;2591;48.144;15.152;2022-10-16T00:19:02;75448.28;;;-144.65;100.00
5146;BME280;2591;48.144;15.152;2022-10-16T00:21:31;75458.50;;;-144.65;100.00
5146;BME280;2591;48.144;15.152;2022-10-16T00:24:02;75456.44;;;-144.65;100.00
5146;BME280;2591;48.144;15.152;2022-10-16T00:26:32;75462.56;;;-144.65;100.00
5146;BME280;2591;48.144;15.152;2022-10-16T00:29:01;75466.63;;;-144.65;100.00
5146;BME280;2591;48.144;15.152;2022-10-16T00:31:29;75466.63;;;-144.65;100.00
5146;BME280;2591;48.144;15.152;2022-10-16T00:33:57;75476.84;;;-144.65;100.00
5146;BME280;2591;48.144;15.152;2022-10-16T00:36:27;75476.84;;;-144.65;100.00
5146;BME280;2591;48.144;15.152;2022-10-16T00:38:56;75487.03;;;-144.65;100.00
5146;BME280;2591;48.144;15.152;2022-10-16T00:41:32;75499.25;;;-144.65;100.00
5146;BME280;2591;48.144;15.152;2022-10-16T00:44:03;75495.19;;;-144.65;100.00
5146;BME280;2591;48.144;15.152;2022-10-16T00:46:38;75497.22;;;-144.65;100.00
5146;BME280;2591;48.144;15.152;2022-10-16T00:49:09;75489.06;;;-144.65;100.00
5146;BME280;2591;48.144;15.152;2022-10-16T00:51:39;75480.91;;;-144.65;100.00
5146;BME280;2591;48.144;15.152;2022-10-16T00:54:10;75485.00;;;-144.65;100.00
5146;BME280;2591;48.144;15.152;2022-10-16T00:56:41;75485.00;;;-144.65;100.00
5146;BME280;2591;48.144;15.152;2022-10-16T00:59:13;75478.88;;;-144.65;100.00
5146;BME280;2591;48.144;15.152;2022-10-16T01:01:42;75474.78;;;-144.65;100.00
5146;BME280;2591;48.144;15.152;2022-10-16T01:04:10;75468.69;;;-144.65;100.00
5146;BME280;2591;48.144;15.152;2022-10-16T01:06:44;75466.63;;;-144.65;100.00
5146;BME280;2591;48.144;15.152;2022-10-16T01:09:16;75470.72;;;-144.65;100.00
5146;BME280;2591;48.144;15.152;2022-10-16T01:11:54;75470.72;;;-144.65;100.00
5146;BME280;2591;48.144;15.152;2022-10-16T01:14:32;75480.91;;;-144.65;100.00
5146;BME280;2591;48.144;15.152;2022-10-16T01:17:06;75478.88;;;-144.65;100.00
5146;BME280;2591;48.144;15.152;2022-10-16T01:19:48;75482.94;;;-144.65;100.00
5146;BME280;2591;48.144;15.152;2022-10-16T01:22:20;75476.84;;;-144.65;100.00
5146;BME280;2591;48.144;15.152;2022-10-16T01:24:52;75478.88;;;-144.65;100.00
5146;BME280;2591;48.144;15.152;2022-10-16T01:27:25;75489.06;;;-144.65;100.00
5146;BME280;2591;48.144;15.152;2022-10-16T01:29:59;75489.06;;;-144.65;100.00
5146;BME280;2591;48.144;15.152;2022-10-16T01:32:33;75497.22;;;-144.65;100.00
5146;BME280;2591;48.144;15.152;2022-10-16T01:35:08;75499.25;;;-144.65;100.00
5146;BME280;2591;48.144;15.152;2022-10-16T01:37:41;75495.19;;;-144.65;100.00
5146;BME280;2591;48.144;15.152;2022-10-16T01:40:14;75499.25;;;-144.65;100.00
5146;BME280;2591;48.144;15.152;2022-10-16T01:42:48;75499.25;;;-144.65;100.00
5146;BME280;2591;48.144;15.152;2022-10-16T01:45:19;75491.09;;;-144.65;100.00
5146;BME280;2591;48.144;15.152;2022-10-16T01:47:48;75489.06;;;-144.65;100.00
5146;BME280;2591;48.144;15.152;2022-10-16T01:50:19;75495.19;;;-144.65;100.00
5146;BME280;2591;48.144;15.152;2022-10-16T01:52:51;75491.09;;;-144.65;100.00
5146;BME280;2591;48.144;15.152;2022-10-16T01:55:22;75489.06;;;-144.65;100.00
5146;BME280;2591;48.144;15.152;2022-10-16T01:57:53;75499.25;;;-144.65;100.00
5146;BME280;2591;48.144;15.152;2022-10-16T02:00:22;75497.22;;;-144.65;100.00
5146;BME280;2591;48.144;15.152;2022-10-16T02:02:53;75499.25;;;-144.65;100.00
5146;BME280;2591;48.144;15.152;2022-10-16T02:05:24;75497.22;;;-144.65;100.00
5146;BME280;2591;48.144;15.152;2022-10-16T02:07:54;75491.09;;;-144.65;100.00
5146;BME280;2591;48.144;15.152;2022-10-16T02:10:26;75485.00;;;-144.65;100.00
5146;BME280;2591;48.144;15.152;2022-10-16T02:13:03;75487.03;;;-144.65;100.00
5146;BME280;2591;48.144;15.152;2022-10-16T02:15:32;75485.00;;;-144.65;100.00
5146;BME280;2591;48.144;15.152;2022-10-16T02:18:01;75495.19;;;-144.65;100.00
5146;BME280;2591;48.144;15.152;2022-10-16T02:20:33;75499.25;;;-144.65;100.00
5146;BME280;2591;48.144;15.152;2022-10-16T02:23:03;75499.25;;;-144.65;100.00
5146;BME280;2591;48.144;15.152;2022-10-16T02:25:34;75489.06;;;-144.65;100.00
5146;BME280;2591;48.144;15.152;2022-10-16T02:28:08;75495.19;;;-144.65;100.00
5146;BME280;2591;48.144;15.152;2022-10-16T02:30:42;75499.25;;;-144.65;100.00
5146;BME280;2591;48.144;15.152;2022-10-16T02:33:12;75499.25;;;-144.65;100.00
5146;BME280;2591;48.144;15.152;2022-10-16T02:35:43;75503.34;;;-144.65;100.00
5146;BME280;2591;48.144;15.152;2022-10-16T02:38:12;75495.19;;;-144.65;100.00
5146;BME280;2591;48.144;15.152;2022-10-16T02:40:41;75505.38;;;-144.65;100.00
5146;BME280;2591;48.144;15.152;2022-10-16T02:43:11;75503.34;;;-144.65;100.00
5146;BME280;2591;48.144;15.152;2022-10-16T02:45:39;75515.56;;;-144.65;100.00
5146;BME280;2591;48.144;15.152;2022-10-16T02:48:07;75519.63;;;-144.65;100.00
5146;BME280;2591;48.144;15.152;2022-10-16T02:50:35;75519.63;;;-144.65;100.00
5146;BME280;2591;48.144;15.152;2022-10-16T02:53:03;75515.56;;;-144.65;100.00
5146;BME280;2591;48.144;15.152;2022-10-16T02:55:31;75519.63;;;-144.65;100.00
5146;BME280;2591;48.144;15.152;2022-10-16T02:57:59;75523.72;;;-144.65;100.00
5146;BME280;2591;48.144;15.152;2022-10-16T03:00:28;75525.75;;;-144.65;100.00
5146;BME280;2591;48.144;15.152;2022-10-16T03:02:56;75525.75;;;-144.65;100.00
5146;BME280;2591;48.144;15.152;2022-10-16T03:05:23;75535.94;;;-144.65;100.00
5146;BME280;2591;48.144;15.152;2022-10-16T03:07:51;75544.09;;;-144.65;100.00
5146;BME280;2591;48.144;15.152;2022-10-16T03:10:20;75540.03;;;-144.65;100.00
5146;BME280;2591;48.144;15.152;2022-10-16T03:12:47;75546.13;;;-144.65;100.00
5146;BME280;2591;48.144;15.152;2022-10-16T03:15:15;75540.03;;;-144.65;100.00
5146;BME280;2591;48.144;15.152;2022-10-16T03:17:45;75535.94;;;-144.65;100.00
5146;BME280;2591;48.144;15.152;2022-10-16T03:20:13;75542.06;;;-144.65;100.00
5146;BME280;2591;48.144;15.152;2022-10-16T03:22:40;75533.91;;;-144.65;100.00
5146;BME280;2591;48.144;15.152;2022-10-16T03:25:08;75537.97;;;-144.65;100.00
5146;BME280;2591;48.144;15.152;2022-10-16T03:27:36;75533.91;;;-144.65;100.00
5146;BME280;2591;48.144;15.152;2022-10-16T03:30:05;75546.13;;;-144.65;100.00
5146;BME280;2591;48.144;15.152;2022-10-16T03:32:33;75554.28;;;-144.65;100.00
5146;BME280;2591;48.144;15.152;2022-10-16T03:35:07;75556.34;;;-144.65;100.00
5146;BME280;2591;48.144;15.152;2022-10-16T03:37:35;75556.34;;;-144.65;100.00
5146;BME280;2591;48.144;15.152;2022-10-16T03:40:03;75556.34;;;-144.65;100.00
5146;BME280;2591;48.144;15.152;2022-10-16T03:42:31;75556.34;;;-144.65;100.00
5146;BME280;2591;48.144;15.152;2022-10-16T03:44:59;75558.38;;;-144.65;100.00
5146;BME280;2591;48.144;15.152;2022-10-16T03:47:27;75564.47;;;-144.65;100.00
5146;BME280;2591;48.144;15.152;2022-10-16T03:49:55;75556.34;;;-144.65;100.00
5146;BME280;2591;48.144;15.152;2022-10-16T03:52:24;75568.56;;;-144.65;100.00
5146;BME280;2591;48.144;15.152;2022-10-16T03:54:52;75568.56;;;-144.65;100.00
5146;BME280;2591;48.144;15.152;2022-10-16T03:57:20;75568.56;;;-144.65;100.00
5146;BME280;2591;48.144;15.152;2022-10-16T03:59:49;75576.72;;;-144.65;100.00
5146;BME280;2591;48.144;15.152;2022-10-16T04:02:17;75591.00;;;-144.65;100.00
5146;BME280;2591;48.144;15.152;2022-10-16T04:04:45;75595.06;;;-144.65;100.00
5146;BME280;2591;48.144;15.152;2022-10-16T04:07:12;75593.03;;;-144.65;100.00
5146;BME280;2591;48.144;15.152;2022-10-16T04:09:42;75597.09;;;-144.65;100.00
5146;BME280;2591;48.144;15.152;2022-10-16T04:12:09;75603.22;;;-144.65;100.00
5146;BME280;2591;48.144;15.152;2022-10-16T04:14:37;75609.34;;;-144.65;100.00
5146;BME280;2591;48.144;15.152;2022-10-16T04:17:05;75603.22;;;-144.65;100.00
5146;BME280;2591;48.144;15.152;2022-10-16T04:19:33;75613.41;;;-144.65;100.00
5146;BME280;2591;48.144;15.152;2022-10-16T04:22:02;75617.50;;;-144.65;100.00
5146;BME280;2591;48.144;15.152;2022-10-16T04:24:30;75613.41;;;-144.65;100.00
5146;BME280;2591;48.144;15.152;2022-10-16T04:26:59;75609.34;;;-144.65;100.00
5146;BME280;2591;48.144;15.152;2022-10-16T04:29:27;75621.56;;;-144.65;100.00
5146;BME280;2591;48.144;15.152;2022-10-16T04:31:55;75623.59;;;-144.65;100.00
5146;BME280;2591;48.144;15.152;2022-10-16T04:34:23;75621.56;;;-144.65;100.00
5146;BME280;2591;48.144;15.152;2022-10-16T04:36:50;75625.63;;;-144.65;100.00
5146;BME280;2591;48.144;15.152;2022-10-16T04:39:18;75629.72;;;-144.65;100.00
5146;BME280;2591;48.144;15.152;2022-10-16T04:41:46;75641.94;;;-144.65;100.00
5146;BME280;2591;48.144;15.152;2022-10-16T04:44:15;75646.03;;;-144.65;100.00
5146;BME280;2591;48.144;15.152;2022-10-16T04:46:43;75644.00;;;-144.65;100.00
5146;BME280;2591;48.144;15.152;2022-10-16T04:49:11;75646.03;;;-144.65;100.00
5146;BME280;2591;48.144;15.152;2022-10-16T04:51:39;75654.19;;;-144.65;100.00
5146;BME280;2591;48.144;15.152;2022-10-16T04:54:08;75658.25;;;-144.65;100.00
5146;BME280;2591;48.144;15.152;2022-10-16T04:56:36;75670.50;;;-144.65;100.00
5146;BME280;2591;48.144;15.152;2022-10-16T04:59:09;75676.59;;;-144.65;100.00
5146;BME280;2591;48.144;15.152;2022-10-16T05:01:39;75672.53;;;-144.65;100.00
5146;BME280;2591;48.144;15.152;2022-10-16T05:04:06;75678.63;;;-144.65;100.00
5146;BME280;2591;48.144;15.152;2022-10-16T05:06:35;75690.88;;;-144.65;100.00
5146;BME280;2591;48.144;15.152;2022-10-16T05:09:02;75686.78;;;-144.65;100.00
5146;BME280;2591;48.144;15.152;2022-10-16T05:11:30;75686.78;;;-144.65;100.00
5146;BME280;2591;48.144;15.152;2022-10-16T05:13:59;75682.72;;;-144.65;100.00
5146;BME280;2591;48.144;15.152;2022-10-16T05:16:27;75684.75;;;-144.65;100.00
5146;BME280;2591;48.144;15.152;2022-10-16T05:18:56;75705.16;;;-144.65;100.00
5146;BME280;2591;48.144;15.152;2022-10-16T05:21:44;75719.41;;;-144.65;100.00
5146;BME280;2591;48.144;15.152;2022-10-16T05:24:12;75719.41;;;-144.65;100.00
5146;BME280;2591;48.144;15.152;2022-10-16T05:26:40;75731.66;;;-144.65;100.00
5146;BME280;2591;48.144;15.152;2022-10-16T05:29:09;75731.66;;;-144.65;100.00
5146;BME280;2591;48.144;15.152;2022-10-16T05:31:36;75735.72;;;-144.65;100.00
5146;BME280;2591;48.144;15.152;2022-10-16T05:34:06;75723.50;;;-144.65;100.00
5146;BME280;2591;48.144;15.152;2022-10-16T05:36:33;75713.28;;;-144.65;100.00
5146;BME280;2591;48.144;15.152;2022-10-16T05:39:02;75711.25;;;-144.65;100.00
5146;BME280;2591;48.144;15.152;2022-10-16T05:41:30;75701.06;;;-144.65;100.00
5146;BME280;2591;48.144;15.152;2022-10-16T05:43:58;75694.94;;;-144.65;100.00
5146;BME280;2591;48.144;15.152;2022-10-16T05:46:26;75690.88;;;-144.65;100.00
5146;BME280;2591;48.144;15.152;2022-10-16T05:48:53;75686.78;;;-144.65;100.00
5146;BME280;2591;48.144;15.152;2022-10-16T05:51:23;75682.72;;;-144.65;100.00
5146;BME280;2591;48.144;15.152;2022-10-16T05:53:52;75690.88;;;-144.65;100.00
5146;BME280;2591;48.144;15.152;2022-10-16T05:56:20;75690.88;;;-144.65;100.00
5146;BME280;2591;48.144;15.152;2022-10-16T05:58:47;75690.88;;;-144.65;100.00
5146;BME280;2591;48.144;15.152;2022-10-16T06:01:17;75682.72;;;-144.65;100.00
5146;BME280;2591;48.144;15.152;2022-10-16T06:03:45;75682.72;;;-144.65;100.00
5146;BME280;2591;48.144;15.152;2022-10-16T06:06:15;75690.88;;;-144.65;100.00
5146;BME280;2591;48.144;15.152;2022-10-16T06:08:45;75694.94;;;-144.65;100.00
5146;BME280;2591;48.144;15.152;2022-10-16T06:11:17;75701.06;;;-144.65;100.00
5146;BME280;2591;48.144;15.152;2022-10-16T06:13:49;75719.41;;;-144.65;100.00
5146;BME280;2591;48.144;15.152;2022-10-16T06:16:17;75715.34;;;-144.65;100.00
5146;BME280;2591;48.144;15.152;2022-10-16T06:18:45;75715.34;;;-144.65;100.00
5146;BME280;2591;48.144;15.152;2022-10-16T06:21:16;75715.34;;;-144.65;100.00
5146;BME280;2591;48.144;15.152;2022-10-16T06:23:46;75719.41;;;-144.65;100.00
5146;BME280;2591;48.144;15.152;2022-10-16T06:26:16;75715.34;;;-144.65;100.00
5146;BME280;2591;48.144;15.152;2022-10-16T06:28:44;75707.19;;;-144.65;100.00
5146;BME280;2591;48.144;15.152;2022-10-16T06:31:12;75699.03;;;-144.65;100.00
5146;BME280;2591;48.144;15.152;2022-10-16T06:33:40;75701.06;;;-144.65;100.00
5146;BME280;2591;48.144;15.152;2022-10-16T06:36:10;75701.06;;;-144.65;100.00
5146;BME280;2591;48.144;15.152;2022-10-16T06:38:38;75705.16;;;-144.65;100.00
5146;BME280;2591;48.144;15.152;2022-10-16T06:41:08;75719.41;;;-144.65;100.00
5146;BME280;2591;48.144;15.152;2022-10-16T06:43:37;75719.41;;;-144.65;100.00
5146;BME280;2591;48.144;15.152;2022-10-16T06:46:06;75715.34;;;-144.65;100.00
5146;BME280;2591;48.144;15.152;2022-10-16T06:48:35;75711.25;;;-144.65;100.00
5146;BME280;2591;48.144;15.152;2022-10-16T06:51:05;75703.09;;;-144.65;100.00
5146;BME280;2591;48.144;15.152;2022-10-16T06:53:35;75707.19;;;-144.65;100.00
5146;BME280;2591;48.144;15.152;2022-10-16T06:56:17;75711.25;;;-144.65;100.00
5146;BME280;2591;48.144;15.152;2022-10-16T06:58:46;75703.09;;;-144.65;100.00
5146;BME280;2591;48.144;15.152;2022-10-16T07:01:15;75703.09;;;-144.65;100.00
5146;BME280;2591;48.144;15.152;2022-10-16T07:03:44;75697.00;;;-144.65;100.00
5146;BME280;2591;48.144;15.152;2022-10-16T07:06:15;75705.16;;;-144.65;100.00
5146;BME280;2591;48.144;15.152;2022-10-16T07:08:45;75692.91;;;-144.65;100.00
5146;BME280;2591;48.144;15.152;2022-10-16T07:11:16;75688.84;;;-144.65;100.00
5146;BME280;2591;48.144;15.152;2022-10-16T07:13:45;75678.63;;;-144.65;100.00
5146;BME280;2591;48.144;15.152;2022-10-16T07:16:22;75670.50;;;-144.65;100.00
5146;BME280;2591;48.144;15.152;2022-10-16T07:18:50;75662.34;;;-144.65;100.00
5146;BME280;2591;48.144;15.152;2022-10-16T07:21:25;75650.09;;;-144.65;100.00
5146;BME280;2591;48.144;15.152;2022-10-16T07:23:54;75666.41;;;-144.65;100.00
5146;BME280;2591;48.144;15.152;2022-10-16T07:26:24;75660.28;;;-144.65;100.00
5146;BME280;2591;48.144;15.152;2022-10-16T07:28:53;75656.22;;;-144.65;100.00
5146;BME280;2591;48.144;15.152;2022-10-16T07:31:22;75662.34;;;-144.65;100.00
5146;BME280;2591;48.144;15.152;2022-10-16T07:33:50;75654.19;;;-144.65;100.00
5146;BME280;2591;48.144;15.152;2022-10-16T07:36:19;75646.03;;;-144.65;100.00
5146;BME280;2591;48.144;15.152;2022-10-16T07:38:48;75641.94;;;-144.65;100.00
5146;BME280;2591;48.144;15.152;2022-10-16T07:41:21;75633.78;;;-144.65;100.00
5146;BME280;2591;48.144;15.152;2022-10-16T07:43:51;75631.75;;;-144.65;100.00
5146;BME280;2591;48.144;15.152;2022-10-16T07:46:21;75617.50;;;-144.65;100.00
5146;BME280;2591;48.144;15.152;2022-10-16T07:48:49;75625.63;;;-144.65;100.00
5146;BME280;2591;48.144;15.152;2022-10-16T07:51:19;75621.56;;;-144.65;100.00
5146;BME280;2591;48.144;15.152;2022-10-16T07:53:47;75621.56;;;-144.65;100.00
5146;BME280;2591;48.144;15.152;2022-10-16T07:56:17;75601.19;;;-144.65;100.00
5146;BME280;2591;48.144;15.152;2022-10-16T07:58:45;75593.03;;;-144.65;100.00
5146;BME280;2591;48.144;15.152;2022-10-16T08:01:17;75574.69;;;-144.65;100.00
5146;BME280;2591;48.144;15.152;2022-10-16T08:03:48;75568.56;;;-144.65;100.00
5146;BME280;2591;48.144;15.152;2022-10-16T08:06:17;75593.03;;;-144.65;100.00
5146;BME280;2591;48.144;15.152;2022-10-16T08:08:52;75601.19;;;-144.65;100.00
5146;BME280;2591;48.144;15.152;2022-10-16T08:11:20;75601.19;;;-144.65;100.00
5146;BME280;2591;48.144;15.152;2022-10-16T08:13:48;75584.88;;;-144.65;100.00
5146;BME280;2591;48.144;15.152;2022-10-16T08:16:17;75582.84;;;-144.65;100.00
5146;BME280;2591;48.144;15.152;2022-10-16T08:18:45;75584.88;;;-144.65;100.00
5146;BME280;2591;48.144;15.152;2022-10-16T08:21:14;75582.84;;;-144.65;100.00
5146;BME280;2591;48.144;15.152;2022-10-16T08:23:47;75568.56;;;-144.65;100.00
5146;BME280;2591;48.144;15.152;2022-10-16T08:26:22;75576.72;;;-144.65;100.00
5146;BME280;2591;48.144;15.152;2022-10-16T08:28:50;75574.69;;;-144.65;100.00
5146;BME280;2591;48.144;15.152;2022-10-16T08:31:20;75582.84;;;-144.65;100.00
5146;BME280;2591;48.144;15.152;2022-10-16T08:33:48;75568.56;;;-144.65;100.00
5146;BME280;2591;48.144;15.152;2022-10-16T08:36:16;75562.44;;;-144.65;100.00
5146;BME280;2591;48.144;15.152;2022-10-16T08:38:47;75544.09;;;-144.65;100.00
5146;BME280;2591;48.144;15.152;2022-10-16T08:41:34;75546.13;;;-144.65;100.00
5146;BME280;2591;48.144;15.152;2022-10-16T08:44:23;75519.63;;;-144.65;100.00
5146;BME280;2591;48.144;15.152;2022-10-16T08:47:02;75525.75;;;-144.65;100.00
5146;BME280;2591;48.144;15.152;2022-10-16T08:49:33;75523.72;;;-144.65;100.00
5146;BME280;2591;48.144;15.152;2022-10-16T08:52:01;75493.13;;;-144.65;100.00
5146;BME280;2591;48.144;15.152;2022-10-16T08:54:31;75503.34;;;-144.65;100.00
5146;BME280;2591;48.144;15.152;2022-10-16T08:57:09;75489.06;;;-144.65;100.00
5146;BME280;2591;48.144;15.152;2022-10-16T08:59:39;75454.41;;;-144.65;100.00
5146;BME280;2591;48.144;15.152;2022-10-16T09:02:23;75415.69;;;-144.65;100.00
5146;BME280;2591;48.144;15.152;2022-10-16T09:05:15;75387.13;;;-144.65;100.00
5146;BME280;2591;48.144;15.152;2022-10-16T09:07:49;75368.78;;;-144.65;100.00
5146;BME280;2591;48.144;15.152;2022-10-16T09:10:33;75381.03;;;-144.65;100.00
5146;BME280;2591;48.144;15.152;2022-10-16T09:13:15;75364.72;;;-144.65;100.00
5146;BME280;2591;48.144;15.152;2022-10-16T09:15:51;75376.94;;;-144.65;100.00
5146;BME280;2591;48.144;15.152;2022-10-16T09:18:27;75405.50;;;-144.65;100.00
5146;BME280;2591;48.144;15.152;2022-10-16T09:21:03;75409.56;;;-144.65;100.00
5146;BME280;2591;48.144;15.152;2022-10-16T09:23:35;75372.88;;;-144.65;100.00
5146;BME280;2591;48.144;15.152;2022-10-16T09:26:05;75323.94;;;-144.65;100.00
5146;BME280;2591;48.144;15.152;2022-10-16T09:28:37;75299.50;;;-144.65;100.00
5146;BME280;2591;48.144;15.152;2022-10-16T09:31:05;75344.34;;;-144.65;100.00
5146;BME280;2591;48.144;15.152;2022-10-16T09:33:36;75376.94;;;-144.65;100.00
5146;BME280;2591;48.144;15.152;2022-10-16T09:36:08;75397.34;;;-144.65;100.00
5146;BME280;2591;48.144;15.152;2022-10-16T09:38:37;75442.19;;;-144.65;100.00
5146;BME280;2591;48.144;15.152;2022-10-16T09:41:14;75450.34;;;-144.65;100.00
5146;BME280;2591;48.144;15.152;2022-10-16T09:43:48;75440.13;;;-144.65;100.00
5146;BME280;2591;48.144;15.152;2022-10-16T09:46:28;75429.94;;;-144.65;100.00
5146;BME280;2591;48.144;15.152;2022-10-16T09:48:59;75427.91;;;-144.65;100.00
5146;BME280;2591;48.144;15.152;2022-10-16T09:51:30;75407.53;;;-144.65;100.00
5146;BME280;2591;48.144;15.152;2022-10-16T09:53:59;75399.38;;;-144.65;100.00
5146;BME280;2591;48.144;15.152;2022-10-16T09:56:29;75374.91;;;-144.65;100.00
5146;BME280;2591;48.144;15.152;2022-10-16T09:59:00;75381.03;;;-144.65;100.00
5146;BME280;2591;48.144;15.152;2022-10-16T10:01:31;75356.56;;;-144.65;100.00
5146;BME280;2591;48.144;15.152;2022-10-16T10:04:06;75391.22;;;-144.65;100.00
5146;BME280;2591;48.144;15.152;2022-10-16T10:06:35;75427.91;;;-144.65;100.00
5146;BME280;2591;48.144;15.152;2022-10-16T10:09:15;75425.88;;;-144.65;100.00
5146;BME280;2591;48.144;15.152;2022-10-16T10:11:48;75421.78;;;-144.65;100.00
5146;BME280;2591;48.144;15.152;2022-10-16T10:14:20;75405.50;;;-144.65;100.00
5146;BME280;2591;48.144;15.152;2022-10-16T10:16:50;75415.69;;;-144.65;100.00
5146;BME280;2591;48.144;15.152;2022-10-16T10:19:22;75403.44;;;-144.65;100.00
5146;BME280;2591;48.144;15.152;2022-10-16T10:21:54;75385.09;;;-144.65;100.00
5146;BME280;2591;48.144;15.152;2022-10-16T10:24:22;75387.13;;;-144.65;100.00
5146;BME280;2591;48.144;15.152;2022-10-16T10:26:56;75405.50;;;-144.65;100.00
5146;BME280;2591;48.144;15.152;2022-10-16T10:29:34;75419.75;;;-144.65;100.00
5146;BME280;2591;48.144;15.152;2022-10-16T10:32:14;75393.25;;;-144.65;100.00
5146;BME280;2591;48.144;15.152;2022-10-16T10:34:56;75399.38;;;-144.65;100.00
5146;BME280;2591;48.144;15.152;2022-10-16T10:37:37;75411.59;;;-144.65;100.00
5146;BME280;2591;48.144;15.152;2022-10-16T10:40:18;75417.72;;;-144.65;100.00
5146;BME280;2591;48.144;15.152;2022-10-16T10:42:56;75401.41;;;-144.65;100.00
5146;BME280;2591;48.144;15.152;2022-10-16T10:45:28;75385.09;;;-144.65;100.00
5146;BME280;2591;48.144;15.152;2022-10-16T10:48:14;75409.56;;;-144.65;100.00
5146;BME280;2591;48.144;15.152;2022-10-16T10:50:49;75393.25;;;-144.65;100.00
5146;BME280;2591;48.144;15.152;2022-10-16T10:53:27;75381.03;;;-144.65;100.00
5146;BME280;2591;48.144;15.152;2022-10-16T10:56:08;75366.75;;;-144.65;100.00
5146;BME280;2591;48.144;15.152;2022-10-16T10:59:02;75340.25;;;-144.65;100.00
5146;BME280;2591;48.144;15.152;2022-10-16T11:01:40;75315.81;;;-144.65;100.00
5146;BME280;2591;48.144;15.152;2022-10-16T11:04:24;75293.38;;;-144.65;100.00
5146;BME280;2591;48.144;15.152;2022-10-16T11:06:59;75273.00;;;-144.65;100.00
5146;BME280;2591;48.144;15.152;2022-10-16T11:09:33;75258.72;;;-144.65;100.00
5146;BME280;2591;48.144;15.152;2022-10-16T11:12:07;75266.88;;;-144.65;100.00
5146;BME280;2591;48.144;15.152;2022-10-16T11:14:42;75230.19;;;-144.65;100.00
5146;BME280;2591;48.144;15.152;2022-10-16T11:17:16;75209.81;;;-144.65;100.00
5146;BME280;2591;48.144;15.152;2022-10-16T11:19:50;75213.88;;;-144.65;100.00
5146;BME280;2591;48.144;15.152;2022-10-16T11:22:25;75217.97;;;-144.65;100.00
5146;BME280;2591;48.144;15.152;2022-10-16T11:25:00;75222.03;;;-144.65;100.00
5146;BME280;2591;48.144;15.152;2022-10-16T11:27:36;75189.44;;;-144.65;100.00
5146;BME280;2591;48.144;15.152;2022-10-16T11:30:14;75162.94;;;-144.65;100.00
5146;BME280;2591;48.144;15.152;2022-10-16T11:32:53;75154.78;;;-144.65;100.00
5146;BME280;2591;48.144;15.152;2022-10-16T11:35:32;75144.59;;;-144.65;100.00
5146;BME280;2591;48.144;15.152;2022-10-16T11:38:12;75152.75;;;-144.65;100.00
5146;BME280;2591;48.144;15.152;2022-10-16T11:40:43;75156.81;;;-144.65;100.00
5146;BME280;2591;48.144;15.152;2022-10-16T11:43:19;75142.53;;;-144.65;100.00
5146;BME280;2591;48.144;15.152;2022-10-16T11:45:51;75128.28;;;-144.65;100.00
5146;BME280;2591;48.144;15.152;2022-10-16T11:48:25;75116.06;;;-144.65;100.00
5146;BME280;2591;48.144;15.152;2022-10-16T11:50:58;75128.28;;;-144.65;100.00
5146;BME280;2591;48.144;15.152;2022-10-16T11:53:40;75103.81;;;-144.65;100.00
5146;BME280;2591;48.144;15.152;2022-10-16T11:56:12;75109.94;;;-144.65;100.00
5146;BME280;2591;48.144;15.152;2022-10-16T11:58:49;75099.75;;;-144.65;100.00
5146;BME280;2591;48.144;15.152;2022-10-16T12:01:22;75079.38;;;-144.65;100.00
5146;BME280;2591;48.144;15.152;2022-10-16T12:04:04;75077.31;;;-144.65;100.00
5146;BME280;2591;48.144;15.152;2022-10-16T12:06:37;75071.22;;;-144.65;100.00
5146;BME280;2591;48.144;15.152;2022-10-16T12:09:15;75079.38;;;-144.65;100.00
5146;BME280;2591;48.144;15.152;2022-10-16T12:11:44;75069.16;;;-144.65;100.00
5146;BME280;2591;48.144;15.152;2022-10-16T12:14:22;75075.28;;;-144.65;100.00
5146;BME280;2591;48.144;15.152;2022-10-16T12:16:51;75093.63;;;-144.65;100.00
5146;BME280;2591;48.144;15.152;2022-10-16T12:19:21;75083.44;;;-144.65;100.00
5146;BME280;2591;48.144;15.152;2022-10-16T12:21:50;75067.13;;;-144.65;100.00
5146;BME280;2591;48.144;15.152;2022-10-16T12:24:30;75071.22;;;-144.65;100.00
5146;BME280;2591;48.144;15.152;2022-10-16T12:26:59;75061.03;;;-144.65;100.00
5146;BME280;2591;48.144;15.152;2022-10-16T12:29:32;75065.09;;;-144.65;100.00
5146;BME280;2591;48.144;15.152;2022-10-16T12:32:04;75069.16;;;-144.65;100.00
5146;BME280;2591;48.144;15.152;2022-10-16T12:34:38;75065.09;;;-144.65;100.00
5146;BME280;2591;48.144;15.152;2022-10-16T12:37:10;75063.06;;;-144.65;100.00
5146;BME280;2591;48.144;15.152;2022-10-16T12:39:42;75026.38;;;-144.65;100.00
5146;BME280;2591;48.144;15.152;2022-10-16T12:42:23;75030.44;;;-144.65;100.00
5146;BME280;2591;48.144;15.152;2022-10-16T12:44:52;75018.22;;;-144.65;100.00
5146;BME280;2591;48.144;15.152;2022-10-16T12:47:22;75022.28;;;-144.65;100.00
5146;BME280;2591;48.144;15.152;2022-10-16T12:49:52;75046.75;;;-144.65;100.00
5146;BME280;2591;48.144;15.152;2022-10-16T12:52:25;75058.97;;;-144.65;100.00
5146;BME280;2591;48.144;15.152;2022-10-16T12:54:57;75046.75;;;-144.65;100.00
5146;BME280;2591;48.144;15.152;2022-10-16T12:57:55;75030.44;;;-144.65;100.00
5146;BME280;2591;48.144;15.152;2022-10-16T13:00:33;75024.34;;;-144.65;100.00
5146;BME280;2591;48.144;15.152;2022-10-16T13:06:09;75040.63;;;-144.65;100.00